Time;durP1;ratioP1;P1;durP2;ratioP2;P2;SDS_P1;SDS_P2;PMS_P1;PMS_P2;Temp;Humidity;BMP_temperature;BMP_pressure;BME280_temperature;BME280_humidity;BME280_pressure;Samples;Min_cycle;Max_cycle;Signal;HPM_P1;HPM_P2
2021/08/13 00:00:27;;;;;;;5.27;4.10;;;;;;;18.83;100.00;100850.19;5072104;28;20175;-70
2021/08/13 00:02:52;;;;;;;4.03;3.73;;;;;;;18.80;100.00;100847.28;5071759;28;20182;-70
2021/08/13 00:05:17;;;;;;;4.47;4.07;;;;;;;18.71;100.00;100847.47;5072005;28;20198;-70
2021/08/13 00:07:43;;;;;;;4.80;4.40;;;;;;;18.68;100.00;100865.63;5072048;28;20257;-70
2021/08/13 00:10:09;;;;;;;4.10;3.80;;;;;;;18.73;100.00;100848.72;5071861;28;20166;-71
2021/08/13 00:12:35;;;;;;;7.37;4.63;;;;;;;18.79;100.00;100846.50;5071795;28;20203;-70
2021/08/13 00:15:00;;;;;;;9.53;3.97;;;;;;;18.79;100.00;100878.91;5071917;28;20186;-70
2021/08/13 00:17:27;;;;;;;4.43;3.93;;;;;;;18.79;100.00;100860.31;5071866;28;20183;-71
2021/08/13 00:19:53;;;;;;;3.93;3.73;;;;;;;18.80;100.00;100869.44;5071757;28;20265;-71
2021/08/13 00:22:19;;;;;;;6.30;3.70;;;;;;;18.78;100.00;100878.09;5071641;28;20174;-70
2021/08/13 00:24:44;;;;;;;4.40;3.50;;;;;;;18.71;100.00;100877.94;5071869;28;20167;-71
2021/08/13 00:27:10;;;;;;;8.07;3.87;;;;;;;18.58;100.00;100870.84;5071645;28;20174;-70
2021/08/13 00:29:35;;;;;;;4.37;3.97;;;;;;;18.47;100.00;100884.38;5071597;28;20673;-70
2021/08/13 00:32:01;;;;;;;5.37;3.60;;;;;;;18.39;100.00;100882.59;5071441;28;20711;-70
2021/08/13 00:34:26;;;;;;;4.73;4.30;;;;;;;18.28;100.00;100862.91;5071659;28;20538;-70
2021/08/13 00:36:52;;;;;;;5.03;4.63;;;;;;;18.23;100.00;100865.16;5071396;28;20174;-70
2021/08/13 00:39:17;;;;;;;5.63;4.50;;;;;;;18.21;100.00;100867.44;5071468;28;20302;-70
2021/08/13 00:41:42;;;;;;;4.60;4.20;;;;;;;18.21;100.00;100876.53;5071303;28;20170;-70
2021/08/13 00:44:08;;;;;;;4.53;4.07;;;;;;;18.20;100.00;100883.22;5071426;28;20167;-70
2021/08/13 00:46:33;;;;;;;4.37;4.07;;;;;;;18.23;100.00;100888.06;5071341;28;20638;-71
2021/08/13 00:48:58;;;;;;;5.23;4.73;;;;;;;18.23;100.00;100890.03;5071349;28;20511;-70
2021/08/13 00:51:24;;;;;;;4.87;3.97;;;;;;;18.12;100.00;100881.44;5070533;28;20194;-70
2021/08/13 00:53:49;;;;;;;5.20;4.13;;;;;;;18.23;100.00;100893.59;5071197;28;20607;-70
2021/08/13 00:56:16;;;;;;;7.40;4.40;;;;;;;18.32;100.00;100882.38;5070664;28;20525;-70
2021/08/13 00:58:42;;;;;;;4.03;3.67;;;;;;;18.35;100.00;100882.47;5070512;28;20626;-70
2021/08/13 01:01:09;;;;;;;4.73;4.33;;;;;;;18.48;100.00;100879.63;5070698;28;20178;-70
2021/08/13 01:03:35;;;;;;;5.63;3.97;;;;;;;18.49;99.83;100882.06;5070236;28;20179;-70
2021/08/13 01:06:01;;;;;;;4.43;4.13;;;;;;;18.51;100.00;100876.97;5070617;28;20185;-70
2021/08/13 01:08:26;;;;;;;4.77;4.27;;;;;;;18.46;100.00;100859.81;5070369;28;20232;-70
2021/08/13 01:11:12;;;;;;;5.23;4.83;;;;;;;18.46;100.00;100860.63;5070500;28;20174;-70
2021/08/13 01:13:51;;;;;;;4.90;4.50;;;;;;;18.40;100.00;100860.09;5070393;28;20614;-71
2021/08/13 01:16:18;;;;;;;5.33;4.37;;;;;;;18.40;100.00;100857.34;5070458;28;20206;-71
2021/08/13 01:18:54;;;;;;;4.70;4.30;;;;;;;18.55;100.00;100852.19;5069100;28;20181;-71
2021/08/13 01:21:32;;;;;;;4.63;4.20;;;;;;;18.67;100.00;100854.91;5070221;28;20186;-71
2021/08/13 01:24:11;;;;;;;4.17;3.83;;;;;;;18.67;100.00;100855.72;5070589;28;20182;-71
2021/08/13 01:27:04;;;;;;;6.50;3.30;;;;;;;18.55;100.00;100849.41;5070300;28;20237;-71
2021/08/13 01:29:49;;;;;;;4.87;4.47;;;;;;;18.25;100.00;100846.22;5059271;28;20198;-71
2021/08/13 01:32:15;;;;;;;4.40;4.10;;;;;;;18.05;100.00;100868.19;5070038;28;20550;-70
2021/08/13 01:34:47;;;;;;;5.77;4.20;;;;;;;17.87;100.00;100842.00;5069212;28;20544;-71
2021/08/13 01:37:14;;;;;;;4.63;4.23;;;;;;;17.78;100.00;100844.91;5069962;28;20182;-70
2021/08/13 01:39:41;;;;;;;3.73;3.43;;;;;;;17.66;100.00;100838.59;5070158;28;20618;-70
2021/08/13 01:42:07;;;;;;;6.23;4.10;;;;;;;17.51;100.00;100867.75;5069875;28;20174;-71
2021/08/13 01:44:33;;;;;;;4.87;4.47;;;;;;;17.42;100.00;100839.44;5070161;28;20174;-70
2021/08/13 01:47:00;;;;;;;5.07;4.67;;;;;;;17.35;100.00;100842.75;5070169;28;20579;-71
2021/08/13 01:49:27;;;;;;;5.23;4.17;;;;;;;17.30;100.00;100831.16;5070579;28;20178;-70
2021/08/13 01:51:53;;;;;;;6.10;4.53;;;;;;;17.21;100.00;100831.28;5069651;28;20206;-70
2021/08/13 01:54:18;;;;;;;4.43;4.03;;;;;;;17.23;100.00;100820.72;5070007;28;20167;-70
2021/08/13 01:56:45;;;;;;;5.00;4.00;;;;;;;17.31;100.00;100832.78;5069923;28;20262;-71
2021/08/13 01:59:10;;;;;;;4.47;4.17;;;;;;;17.35;100.00;100841.97;5070175;28;20166;-71
2021/08/13 02:01:36;;;;;;;5.97;4.23;;;;;;;17.38;100.00;100842.09;5070768;28;20186;-71
2021/08/13 02:04:04;;;;;;;5.13;4.73;;;;;;;17.47;100.00;100837.22;5073905;28;20543;-71
2021/08/13 02:06:31;;;;;;;5.43;4.90;;;;;;;17.54;100.00;100839.41;5073789;28;20181;-71
2021/08/13 02:08:57;;;;;;;5.13;4.33;;;;;;;17.53;100.00;100848.88;5073848;28;20175;-70
2021/08/13 02:11:24;;;;;;;4.57;4.13;;;;;;;17.50;100.00;100844.00;5073563;28;20681;-71
2021/08/13 02:13:49;;;;;;;4.63;4.23;;;;;;;17.50;100.00;100842.06;5073739;28;20675;-70
2021/08/13 02:16:21;;;;;;;5.20;4.67;;;;;;;17.52;100.00;100838.97;5073777;28;20187;-71
2021/08/13 02:18:54;;;;;;;5.07;4.60;;;;;;;17.57;100.00;100835.94;5073732;28;20179;-70
2021/08/13 02:21:20;;;;;;;5.27;4.87;;;;;;;17.54;100.00;100836.66;5073422;28;20174;-70
2021/08/13 02:23:46;;;;;;;5.57;5.07;;;;;;;17.32;100.00;100839.91;5073588;28;20258;-71
2021/08/13 02:26:11;;;;;;;9.43;5.40;;;;;;;17.26;100.00;100831.06;5073534;28;20253;-71
2021/08/13 02:28:37;;;;;;;7.83;4.57;;;;;;;17.33;100.00;100838.75;5072215;28;20182;-71
2021/08/13 02:31:02;;;;;;;5.53;5.03;;;;;;;17.46;100.00;100834.81;5068750;28;20603;-71
2021/08/13 02:33:28;;;;;;;5.63;5.20;;;;;;;17.60;100.00;100848.25;5073650;28;20228;-70
2021/08/13 02:36:01;;;;;;;5.33;4.83;;;;;;;17.71;100.00;100844.69;5073761;28;20521;-71
2021/08/13 02:38:32;;;;;;;7.87;4.30;;;;;;;17.76;100.00;100844.44;5073723;28;20170;-71
2021/08/13 02:41:02;;;;;;;5.23;4.67;;;;;;;17.79;100.00;100842.94;5073760;28;20163;-73
2021/08/13 02:43:35;;;;;;;5.63;4.97;;;;;;;17.62;100.00;100835.69;5073571;28;20257;-71
2021/08/13 02:46:02;;;;;;;4.83;4.53;;;;;;;17.30;100.00;100826.44;5073738;28;20170;-70
2021/08/13 02:48:30;;;;;;;4.77;4.37;;;;;;;17.08;100.00;100846.25;5073581;28;20171;-70
2021/08/13 02:50:58;;;;;;;5.70;5.13;;;;;;;16.88;100.00;100825.88;5073528;28;20537;-70
2021/08/13 02:53:25;;;;;;;4.63;4.23;;;;;;;16.78;100.00;100823.56;5073258;28;20174;-70
2021/08/13 02:56:08;;;;;;;5.50;5.00;;;;;;;16.72;100.00;100824.94;5073932;28;20215;-70
2021/08/13 02:58:41;;;;;;;5.13;4.63;;;;;;;16.61;100.00;100816.28;5073528;28;20194;-70
2021/08/13 03:01:08;;;;;;;6.37;4.63;;;;;;;16.41;100.00;100817.19;5073404;28;20641;-70
2021/08/13 03:03:35;;;;;;;5.27;4.90;;;;;;;16.24;100.00;100812.66;5073107;28;20178;-70
2021/08/13 03:06:03;;;;;;;5.00;4.50;;;;;;;16.09;100.00;100841.66;5073346;28;20258;-70
2021/08/13 03:08:29;;;;;;;6.23;4.77;;;;;;;16.01;100.00;100883.88;5073607;28;20551;-70
2021/08/13 03:10:56;;;;;;;4.80;4.40;;;;;;;16.01;100.00;100853.56;5073149;28;20182;-70
2021/08/13 03:13:23;;;;;;;5.57;4.83;;;;;;;16.06;100.00;100847.88;5072121;28;20174;-70
2021/08/13 03:15:50;;;;;;;5.10;4.70;;;;;;;16.09;100.00;100847.19;5073118;28;20163;-70
2021/08/13 03:18:15;;;;;;;5.80;4.87;;;;;;;16.16;100.00;100836.41;5073121;28;20201;-70
2021/08/13 03:20:41;;;;;;;6.07;5.57;;;;;;;16.20;100.00;100842.88;5073072;28;20199;-70
2021/08/13 03:23:08;;;;;;;5.33;4.83;;;;;;;16.28;100.00;100841.16;5072983;28;20193;-70
2021/08/13 03:25:35;;;;;;;5.27;4.77;;;;;;;16.41;100.00;100842.81;5072936;28;20175;-71
2021/08/13 03:28:00;;;;;;;5.07;4.57;;;;;;;16.53;100.00;100850.31;5072898;28;20206;-70
2021/08/13 03:30:26;;;;;;;5.00;4.53;;;;;;;16.48;100.00;100856.81;5073036;28;20201;-70
2021/08/13 03:32:54;;;;;;;8.57;4.63;;;;;;;16.40;100.00;100848.66;5073970;28;20247;-70
2021/08/13 03:35:19;;;;;;;5.30;4.80;;;;;;;16.42;100.00;100841.66;5073981;28;20220;-70
2021/08/13 03:37:45;;;;;;;5.10;4.60;;;;;;;16.46;100.00;100850.84;5072867;28;20618;-70
2021/08/13 03:40:10;;;;;;;5.23;4.83;;;;;;;16.37;100.00;100847.41;5072568;28;20396;-70
2021/08/13 03:42:36;;;;;;;5.13;4.73;;;;;;;16.40;100.00;100854.19;5072588;28;20183;-70
2021/08/13 03:45:02;;;;;;;5.73;4.97;;;;;;;16.42;100.00;100838.09;5072729;28;20166;-71
2021/08/13 03:47:27;;;;;;;4.87;4.20;;;;;;;16.36;100.00;100845.78;5072691;28;20590;-70
2021/08/13 03:49:52;;;;;;;9.07;4.87;;;;;;;16.36;100.00;100848.53;5070717;28;20273;-70
2021/08/13 03:52:18;;;;;;;5.90;5.40;;;;;;;16.38;100.00;100853.72;5071844;28;20281;-70
2021/08/13 03:54:43;;;;;;;4.67;4.27;;;;;;;16.39;100.00;100841.53;5072149;28;20199;-70
2021/08/13 03:57:09;;;;;;;5.50;5.03;;;;;;;16.35;100.00;100849.69;5072053;28;20162;-70
2021/08/13 03:59:34;;;;;;;6.57;4.63;;;;;;;16.33;100.00;100841.72;5071960;28;20178;-70
2021/08/13 04:02:00;;;;;;;4.87;4.47;;;;;;;16.31;100.00;100855.06;5072223;28;20560;-70
2021/08/13 04:04:25;;;;;;;4.07;3.77;;;;;;;16.26;100.00;100844.25;5071590;28;20193;-70
2021/08/13 04:06:50;;;;;;;4.70;4.30;;;;;;;16.25;100.00;100848.16;5071719;28;20201;-70
2021/08/13 04:09:16;;;;;;;5.03;4.50;;;;;;;16.28;100.00;100846.66;5071588;28;20170;-70
2021/08/13 04:11:41;;;;;;;5.73;4.37;;;;;;;16.33;100.00;100850.00;5071223;28;20191;-70
2021/08/13 04:14:07;;;;;;;5.20;4.70;;;;;;;16.42;100.00;100857.41;5071591;28;20170;-70
2021/08/13 04:16:32;;;;;;;5.57;5.07;;;;;;;16.45;100.00;100906.34;5071457;28;20167;-71
2021/08/13 04:18:57;;;;;;;5.00;4.60;;;;;;;16.46;100.00;100872.91;5071412;28;20656;-71
2021/08/13 04:21:23;;;;;;;4.87;4.47;;;;;;;16.52;100.00;100888.13;5071128;28;20304;-71
2021/08/13 04:23:48;;;;;;;6.67;4.27;;;;;;;16.60;100.00;100892.72;5071209;28;20170;-71
2021/08/13 04:26:13;;;;;;;5.13;4.67;;;;;;;16.64;100.00;100882.63;5071036;28;20204;-71
2021/08/13 04:28:39;;;;;;;4.50;4.10;;;;;;;16.66;100.00;100885.06;5071384;28;20501;-71
2021/08/13 04:31:04;;;;;;;5.37;4.27;;;;;;;16.71;100.00;100882.09;5071235;28;20667;-71
2021/08/13 04:33:30;;;;;;;4.67;4.27;;;;;;;16.76;100.00;100872.78;5070772;28;20166;-70
2021/08/13 04:35:55;;;;;;;4.30;3.83;;;;;;;16.84;100.00;100877.41;5070817;28;20355;-71
2021/08/13 04:38:21;;;;;;;8.87;4.73;;;;;;;16.90;100.00;100898.09;5070982;28;20662;-71
2021/08/13 04:40:46;;;;;;;4.90;4.33;;;;;;;16.92;100.00;100882.00;5071338;28;20183;-71
2021/08/13 04:43:11;;;;;;;4.60;4.30;;;;;;;16.99;100.00;100875.94;5070703;28;20170;-71
2021/08/13 04:45:37;;;;;;;5.17;4.70;;;;;;;17.05;100.00;100878.09;5070917;28;20241;-71
2021/08/13 04:48:02;;;;;;;5.17;4.77;;;;;;;17.06;100.00;100879.72;5071236;28;20190;-71
2021/08/13 04:50:28;;;;;;;5.10;4.70;;;;;;;16.99;100.00;100871.22;5070923;28;20174;-71
2021/08/13 04:52:53;;;;;;;4.40;4.00;;;;;;;16.85;100.00;100873.50;5070548;28;20275;-71
2021/08/13 04:55:24;;;;;;;6.77;4.20;;;;;;;16.80;100.00;100873.72;5070873;28;20253;-70
2021/08/13 04:57:50;;;;;;;5.13;4.70;;;;;;;16.80;100.00;100870.97;5070710;28;20177;-71
2021/08/13 05:00:17;;;;;;;4.40;4.03;;;;;;;16.85;100.00;100870.72;5070671;28;20186;-71
2021/08/13 05:02:42;;;;;;;5.03;4.63;;;;;;;16.89;100.00;100879.94;5070430;28;20630;-71
2021/08/13 05:05:08;;;;;;;4.57;4.27;;;;;;;16.94;100.00;100885.25;5070627;28;20178;-71
2021/08/13 05:07:34;;;;;;;5.47;4.97;;;;;;;17.05;100.00;100883.63;5070519;28;20269;-71
2021/08/13 05:10:05;;;;;;;4.67;4.27;;;;;;;17.16;100.00;100876.50;5070570;28;20167;-71
2021/08/13 05:12:31;;;;;;;4.77;4.37;;;;;;;17.24;100.00;100874.78;5070560;28;20202;-71
2021/08/13 05:14:56;;;;;;;5.07;4.67;;;;;;;17.34;100.00;100876.25;5070541;28;20170;-71
2021/08/13 05:17:22;;;;;;;5.33;4.83;;;;;;;17.40;100.00;100878.47;5069460;28;20175;-71
2021/08/13 05:19:47;;;;;;;4.47;4.07;;;;;;;17.46;100.00;100885.34;5070383;28;20181;-71
2021/08/13 05:22:12;;;;;;;4.67;4.33;;;;;;;17.49;100.00;100890.16;5070124;28;20237;-71
2021/08/13 05:24:38;;;;;;;5.17;4.77;;;;;;;17.53;100.00;100884.78;5070386;28;20575;-71
2021/08/13 05:27:03;;;;;;;7.13;4.47;;;;;;;17.57;100.00;100888.44;5070359;28;20265;-71
2021/08/13 05:29:28;;;;;;;7.13;4.70;;;;;;;17.61;100.00;100891.31;5070194;28;20181;-70
2021/08/13 05:31:54;;;;;;;4.50;4.20;;;;;;;17.64;100.00;100894.19;5068788;28;20194;-71
2021/08/13 05:34:19;;;;;;;5.70;5.20;;;;;;;17.72;100.00;100898.81;5070326;28;20204;-71
2021/08/13 05:36:44;;;;;;;4.60;4.30;;;;;;;17.75;100.00;100889.03;5069369;28;20528;-70
2021/08/13 05:39:10;;;;;;;5.30;4.90;;;;;;;17.79;100.00;100899.03;5070302;28;20521;-70
2021/08/13 05:41:35;;;;;;;4.47;4.17;;;;;;;17.82;100.00;100895.56;5069903;28;20243;-70
2021/08/13 05:44:00;;;;;;;4.60;4.20;;;;;;;17.81;100.00;100890.41;5070154;28;20178;-71
2021/08/13 05:46:26;;;;;;;4.70;4.40;;;;;;;17.82;100.00;100887.28;5070113;28;20175;-71
2021/08/13 05:48:51;;;;;;;4.80;4.40;;;;;;;17.90;100.00;100893.81;5070251;28;20673;-70
2021/08/13 05:51:17;;;;;;;5.40;5.00;;;;;;;17.94;100.00;100899.44;5069881;28;20667;-70
2021/08/13 05:53:42;;;;;;;5.23;4.83;;;;;;;17.99;100.00;100900.03;5070067;28;20450;-71
2021/08/13 05:56:07;;;;;;;5.50;5.00;;;;;;;18.04;100.00;100893.44;5069920;28;20617;-70
2021/08/13 05:58:33;;;;;;;5.70;5.30;;;;;;;18.08;100.00;100900.69;5069941;28;20247;-70
2021/08/13 06:00:58;;;;;;;6.03;5.53;;;;;;;18.02;100.00;100891.03;5069866;28;20167;-71
2021/08/13 06:03:23;;;;;;;6.27;5.60;;;;;;;18.07;100.00;100896.28;5068096;28;20213;-70
2021/08/13 06:05:49;;;;;;;5.73;5.23;;;;;;;18.04;100.00;100896.19;5067356;28;20210;-71
2021/08/13 06:08:14;;;;;;;5.57;5.07;;;;;;;17.99;100.00;100897.25;5070409;28;20169;-70
2021/08/13 06:10:39;;;;;;;6.20;5.70;;;;;;;17.99;100.00;100891.72;5070299;28;20166;-70
2021/08/13 06:13:05;;;;;;;6.90;6.33;;;;;;;18.07;100.00;100972.91;5070211;28;20591;-70
2021/08/13 06:15:30;;;;;;;5.87;5.37;;;;;;;18.16;100.00;100901.69;5070303;28;20261;-71
2021/08/13 06:17:56;;;;;;;5.67;5.17;;;;;;;18.30;100.00;100888.25;5070218;28;20261;-71
2021/08/13 06:20:23;;;;;;;6.20;5.70;;;;;;;18.41;100.00;100896.88;5068489;28;20224;-71
2021/08/13 06:22:49;;;;;;;7.43;5.20;;;;;;;18.52;100.00;100897.16;5069547;28;20170;-71
2021/08/13 06:25:14;;;;;;;6.03;5.47;;;;;;;18.66;100.00;100892.84;5068308;28;20171;-71
2021/08/13 06:27:42;;;;;;;5.67;5.17;;;;;;;18.82;100.00;100909.47;5069577;28;20583;-71
2021/08/13 06:30:09;;;;;;;6.77;5.23;;;;;;;18.95;100.00;100910.19;5067890;28;20232;-71
2021/08/13 06:32:35;;;;;;;5.50;5.03;;;;;;;19.03;100.00;100909.22;5069896;28;20194;-71
2021/08/13 06:35:00;;;;;;;8.17;5.13;;;;;;;19.15;100.00;100908.31;5070038;28;20656;-71
2021/08/13 06:37:25;;;;;;;4.83;4.53;;;;;;;19.26;100.00;100907.44;5069924;28;20181;-71
2021/08/13 06:39:51;;;;;;;6.10;5.67;;;;;;;19.36;100.00;100908.03;5070123;28;20689;-71
2021/08/13 06:42:16;;;;;;;5.50;5.00;;;;;;;19.44;100.00;100885.66;5070333;28;20582;-71
2021/08/13 06:44:42;;;;;;;5.80;5.30;;;;;;;19.58;100.00;100894.34;5070124;28;20167;-71
2021/08/13 06:47:07;;;;;;;8.03;5.33;;;;;;;19.68;100.00;100901.31;5069548;28;20733;-71
2021/08/13 06:49:33;;;;;;;5.77;5.37;;;;;;;19.80;100.00;100894.81;5073145;28;20178;-71
2021/08/13 06:51:58;;;;;;;5.50;5.00;;;;;;;19.91;100.00;100902.19;5072735;28;20269;-71
2021/08/13 06:54:23;;;;;;;5.67;5.17;;;;;;;19.99;100.00;100889.31;5072925;28;20179;-70
2021/08/13 06:56:49;;;;;;;5.47;4.73;;;;;;;20.06;100.00;100892.22;5073062;28;20695;-71
2021/08/13 06:59:14;;;;;;;5.80;5.20;;;;;;;20.18;99.50;100900.41;5073390;28;20182;-71
2021/08/13 07:01:40;;;;;;;5.17;4.77;;;;;;;20.28;98.27;100901.00;5072890;28;20170;-70
2021/08/13 07:04:05;;;;;;;6.23;5.70;;;;;;;20.34;98.03;100908.63;5072865;28;20213;-71
2021/08/13 07:06:30;;;;;;;7.03;5.87;;;;;;;20.58;96.99;100909.53;5072672;28;20213;-70
2021/08/13 07:08:56;;;;;;;5.60;4.67;;;;;;;20.72;92.21;100907.81;5072943;28;20178;-71
2021/08/13 07:11:21;;;;;;;5.67;5.23;;;;;;;20.85;89.91;100900.13;5072622;28;20221;-71
2021/08/13 07:13:46;;;;;;;4.90;4.50;;;;;;;21.01;93.62;100905.56;5072683;28;20173;-70
2021/08/13 07:16:12;;;;;;;5.10;4.70;;;;;;;21.02;91.17;100913.50;5072750;28;20176;-71
2021/08/13 07:18:37;;;;;;;5.53;5.00;;;;;;;21.13;92.20;100921.22;5072603;28;20180;-71
2021/08/13 07:21:03;;;;;;;6.07;5.00;;;;;;;21.26;90.73;100917.88;5072523;28;20632;-70
2021/08/13 07:23:28;;;;;;;7.77;5.17;;;;;;;21.41;87.43;100915.34;5072165;28;20201;-71
2021/08/13 07:25:54;;;;;;;7.93;5.87;;;;;;;21.49;84.60;100922.63;5071244;28;20642;-70
2021/08/13 07:28:19;;;;;;;6.60;5.93;;;;;;;21.48;83.78;100913.47;5072500;28;20265;-71
2021/08/13 07:30:44;;;;;;;5.90;5.40;;;;;;;21.48;84.08;100907.13;5072575;28;20207;-70
2021/08/13 07:33:10;;;;;;;5.60;5.17;;;;;;;21.48;85.14;100912.69;5072092;28;20200;-71
2021/08/13 07:35:36;;;;;;;5.67;5.23;;;;;;;21.45;86.45;100905.09;5072215;28;20254;-71
2021/08/13 07:38:01;;;;;;;5.60;5.10;;;;;;;21.54;85.61;100914.75;5072313;28;20722;-71
2021/08/13 07:40:26;;;;;;;6.03;5.43;;;;;;;21.64;85.85;100904.97;5072536;28;20178;-70
2021/08/13 07:42:54;;;;;;;5.17;4.70;;;;;;;21.79;83.10;100905.97;5072677;28;20223;-71
2021/08/13 07:45:20;;;;;;;5.23;4.83;;;;;;;21.93;82.84;100914.53;5072575;28;20168;-71
2021/08/13 07:47:45;;;;;;;6.83;5.10;;;;;;;22.06;81.49;100913.13;5072436;28;20175;-72
2021/08/13 07:50:11;;;;;;;4.70;4.33;;;;;;;22.22;79.84;100915.72;5072422;28;20299;-75
2021/08/13 07:52:36;;;;;;;5.37;4.97;;;;;;;22.36;80.74;100918.69;5072208;28;20725;-70
2021/08/13 07:55:01;;;;;;;5.73;5.20;;;;;;;22.53;80.16;100912.50;5072527;28;20694;-70
2021/08/13 07:57:27;;;;;;;5.57;5.07;;;;;;;22.65;79.25;100921.78;5072021;28;20171;-70
2021/08/13 07:59:53;;;;;;;5.13;4.63;;;;;;;22.74;80.00;100934.22;5070351;28;20693;-70
2021/08/13 08:02:18;;;;;;;6.10;4.90;;;;;;;22.94;76.00;100934.84;5071842;28;20167;-70
2021/08/13 08:04:45;;;;;;;5.23;4.60;;;;;;;23.03;75.47;100931.75;5071597;28;20190;-70
2021/08/13 08:07:10;;;;;;;4.40;4.00;;;;;;;23.07;72.83;100930.59;5072036;28;20182;-71
2021/08/13 08:09:36;;;;;;;5.50;5.00;;;;;;;23.16;70.46;100933.06;5072175;28;20179;-71
2021/08/13 08:12:01;;;;;;;5.10;4.70;;;;;;;23.24;70.02;100931.94;5072037;28;20722;-71
2021/08/13 08:14:28;;;;;;;4.77;4.37;;;;;;;23.30;67.27;100926.81;5071837;28;20205;-71
2021/08/13 08:16:53;;;;;;;5.37;4.90;;;;;;;23.39;68.07;100935.63;5071429;28;20182;-71
2021/08/13 08:19:18;;;;;;;4.77;4.27;;;;;;;23.45;69.82;100928.53;5071411;28;20953;-71
2021/08/13 08:21:44;;;;;;;4.63;4.23;;;;;;;23.57;69.98;100942.16;5071240;28;20223;-71
2021/08/13 08:24:11;;;;;;;4.50;4.10;;;;;;;23.65;69.08;100934.66;5071515;28;20194;-71
2021/08/13 08:26:36;;;;;;;4.20;3.80;;;;;;;23.79;67.57;100939.53;5071225;28;20360;-71
2021/08/13 08:29:02;;;;;;;4.57;4.20;;;;;;;23.77;65.00;100931.56;5071187;28;20177;-71
2021/08/13 08:31:27;;;;;;;4.50;4.10;;;;;;;23.85;65.81;100940.75;5070638;28;20278;-71
2021/08/13 08:33:52;;;;;;;4.50;4.13;;;;;;;23.91;65.66;100953.16;5069799;28;20177;-71
2021/08/13 08:36:18;;;;;;;6.57;3.83;;;;;;;23.94;62.73;100946.78;5070904;28;20170;-71
2021/08/13 08:38:43;;;;;;;5.97;3.77;;;;;;;24.01;61.38;100935.66;5071126;28;20338;-71
2021/08/13 08:41:09;;;;;;;3.80;3.57;;;;;;;24.10;62.45;100936.09;5071073;28;20190;-71
2021/08/13 08:43:35;;;;;;;4.93;3.43;;;;;;;24.17;62.85;100933.38;5070721;28;20762;-71
2021/08/13 08:46:02;;;;;;;4.03;3.70;;;;;;;24.28;60.80;100939.78;5071211;28;20680;-71
2021/08/13 08:48:35;;;;;;;3.80;3.50;;;;;;;24.35;62.57;100927.06;5070835;28;20236;-71
2021/08/13 08:51:02;;;;;;;3.17;2.97;;;;;;;24.44;61.62;100916.31;5070717;28;20573;-71
2021/08/13 08:53:29;;;;;;;4.87;3.67;;;;;;;24.58;65.08;100914.34;5070628;28;20787;-71
2021/08/13 08:55:55;;;;;;;3.67;3.37;;;;;;;24.61;61.82;100912.78;5070724;28;20167;-71
2021/08/13 08:58:21;;;;;;;4.93;3.90;;;;;;;24.66;59.89;100906.81;5070972;28;20171;-71
2021/08/13 09:00:48;;;;;;;3.93;3.50;;;;;;;24.67;62.56;100893.63;5070951;28;20531;-72
2021/08/13 09:03:15;;;;;;;3.90;3.60;;;;;;;24.80;62.79;100894.84;5070234;28;20215;-71
2021/08/13 09:05:41;;;;;;;4.17;3.47;;;;;;;24.88;60.51;100896.44;5067766;28;20259;-72
2021/08/13 09:08:06;;;;;;;4.07;3.50;;;;;;;25.02;62.48;100898.47;5069916;28;20630;-72
2021/08/13 09:10:32;;;;;;;4.30;4.00;;;;;;;25.07;63.65;100898.91;5070132;28;20175;-72
2021/08/13 09:13:03;;;;;;;4.47;4.07;;;;;;;25.15;63.88;100888.50;5065125;28;20685;-72
2021/08/13 09:15:43;;;;;;;4.00;3.70;;;;;;;25.25;63.28;100889.69;5063907;28;20179;-72
2021/08/13 09:18:17;;;;;;;3.87;3.57;;;;;;;25.33;64.02;100883.72;5067927;28;20208;-72
2021/08/13 09:20:46;;;;;;;3.40;3.10;;;;;;;25.42;62.37;100886.88;5071099;28;20231;-72
2021/08/13 09:23:28;;;;;;;5.07;3.97;;;;;;;25.36;61.05;100885.69;5072224;28;20470;-72
2021/08/13 09:25:58;;;;;;;4.57;4.17;;;;;;;25.35;63.25;100878.50;5054871;28;20489;-72
2021/08/13 09:28:43;;;;;;;4.43;4.03;;;;;;;25.40;60.12;100877.28;5066121;28;20684;-72
2021/08/13 09:31:20;;;;;;;4.20;3.90;;;;;;;25.53;61.75;100875.66;5069371;28;20173;-71
2021/08/13 09:33:48;;;;;;;5.63;5.17;;;;;;;25.59;62.70;100882.44;5067716;28;20182;-71
2021/08/13 09:36:19;;;;;;;17.50;6.77;;;;;;;25.70;64.46;100869.25;5070486;28;20236;-71
2021/08/13 09:38:47;;;;;;;4.70;4.30;;;;;;;25.72;59.57;100857.66;5070720;28;20182;-71
2021/08/13 09:41:18;;;;;;;5.10;4.70;;;;;;;25.81;65.04;101034.41;5070575;28;20183;-72
2021/08/13 09:44:01;;;;;;;6.47;5.97;;;;;;;25.94;62.57;100836.78;5070847;28;20181;-71
2021/08/13 09:46:30;;;;;;;4.20;3.90;;;;;;;25.85;59.55;100844.81;5067244;28;20288;-71
2021/08/13 09:49:16;;;;;;;4.60;4.20;;;;;;;25.86;62.11;100848.41;5070623;28;20177;-71
2021/08/13 09:51:42;;;;;;;4.43;4.03;;;;;;;25.93;60.60;100840.78;5067353;28;20240;-71
2021/08/13 09:54:10;;;;;;;4.87;4.47;;;;;;;26.04;60.86;100830.34;5067466;28;20534;-71
2021/08/13 09:56:37;;;;;;;4.27;3.97;;;;;;;26.05;61.20;100826.34;5070455;28;20189;-72
2021/08/13 09:59:12;;;;;;;4.03;3.73;;;;;;;26.31;61.08;100833.38;5070028;28;20186;-71
2021/08/13 10:01:42;;;;;;;3.80;3.50;;;;;;;26.49;59.01;100849.31;5066948;28;20190;-71
2021/08/13 10:04:08;;;;;;;4.47;3.97;;;;;;;26.58;58.33;100869.28;5050302;28;20187;-71
2021/08/13 10:06:35;;;;;;;4.67;4.27;;;;;;;26.62;58.66;100862.44;5058151;28;20618;-71
2021/08/13 10:09:01;;;;;;;4.77;4.37;;;;;;;26.73;58.22;100858.75;5070346;28;20178;-71
2021/08/13 10:11:27;;;;;;;3.87;3.57;;;;;;;26.67;54.41;100852.78;5070686;28;20244;-71
2021/08/13 10:13:53;;;;;;;4.20;3.70;;;;;;;26.70;55.49;100849.16;5070547;28;20581;-71
2021/08/13 10:16:26;;;;;;;4.17;3.77;;;;;;;26.65;54.61;100838.41;5070062;28;20174;-71
2021/08/13 10:18:55;;;;;;;3.87;3.57;;;;;;;26.63;55.41;100833.22;5070249;28;20272;-71
2021/08/13 10:21:23;;;;;;;4.77;4.37;;;;;;;26.65;57.95;100839.19;5070205;28;20186;-71
2021/08/13 10:23:50;;;;;;;5.47;4.30;;;;;;;26.75;56.54;100837.50;5072970;28;20193;-72
2021/08/13 10:26:17;;;;;;;4.67;4.37;;;;;;;26.81;56.00;100829.47;5074037;28;20175;-71
2021/08/13 10:28:43;;;;;;;5.77;5.27;;;;;;;26.94;55.24;100828.53;5074072;28;20176;-71
2021/08/13 10:31:12;;;;;;;4.30;3.97;;;;;;;27.06;55.25;100835.69;5074106;28;20539;-71
2021/08/13 10:33:40;;;;;;;5.53;4.13;;;;;;;26.98;55.51;100826.50;5073844;28;20209;-71
2021/08/13 10:36:07;;;;;;;4.10;3.80;;;;;;;26.99;54.98;100821.69;5073897;28;20534;-71
2021/08/13 10:38:32;;;;;;;4.50;4.10;;;;;;;27.06;57.37;100827.28;5073875;28;20195;-71
2021/08/13 10:40:59;;;;;;;4.93;4.43;;;;;;;27.08;55.25;100824.84;5073942;28;20619;-71
2021/08/13 10:43:34;;;;;;;4.97;4.57;;;;;;;27.16;55.91;100826.34;5073632;28;20179;-72
2021/08/13 10:46:04;;;;;;;4.77;4.37;;;;;;;27.18;57.96;100823.13;5073751;28;20198;-72
2021/08/13 10:48:29;;;;;;;4.03;3.67;;;;;;;26.96;55.55;100822.53;5073166;28;20236;-72
2021/08/13 10:50:59;;;;;;;4.63;4.23;;;;;;;26.82;56.78;100808.63;5073423;28;20174;-71
2021/08/13 10:53:37;;;;;;;4.30;3.90;;;;;;;26.93;57.44;100800.91;5073329;28;20199;-71
2021/08/13 10:56:05;;;;;;;3.80;3.50;;;;;;;27.12;55.78;100802.38;5073405;28;20227;-71
2021/08/13 10:58:36;;;;;;;4.33;2.90;;;;;;;27.16;54.52;100797.50;5073501;28;20178;-71
2021/08/13 11:01:09;;;;;;;3.83;3.53;;;;;;;27.20;55.17;100781.44;5073344;28;20174;-71
2021/08/13 11:03:36;;;;;;;3.93;3.63;;;;;;;27.31;56.05;100792.53;5072964;28;20515;-72
2021/08/13 11:06:02;;;;;;;4.63;4.23;;;;;;;27.36;55.89;100783.69;5073244;28;20185;-71
2021/08/13 11:08:40;;;;;;;4.40;4.00;;;;;;;27.53;56.00;100783.47;5072082;28;20240;-71
2021/08/13 11:11:09;;;;;;;3.93;3.63;;;;;;;27.49;54.10;100793.16;5073155;28;20563;-71
2021/08/13 11:13:37;;;;;;;4.77;4.37;;;;;;;27.46;54.56;100793.97;5073126;28;20258;-71
2021/08/13 11:16:03;;;;;;;4.77;4.37;;;;;;;27.51;54.48;100780.28;5072956;28;20186;-71
2021/08/13 11:18:36;;;;;;;4.13;3.53;;;;;;;27.65;54.19;100779.34;5072427;28;20504;-71